West Chester, Iowa
Current Conditions -  °F | °C
As of 5:15 PM on Thursday 23 Oct 2014 (Local Time) from KAWG Reporting Station
Overcast Overcast  
Wind Chill: 17°   Ceiling: 2100
Heat Index: 17°   Visibility: 10mi
Dew Point: 15°   Wind: 5mph
Humidity: 88%   Direction: 300°WNW
Pressure: 30.03"   Gusts: NA
Location:  41.34°N, 91.82°W
Report Text: KAWG 232215Z AUTO 30004KT 10SM BKN021 OVC025 17/15 A3003 RMK AO2
Loading
Personal Weather Stations






























Interactive Weather Map
Tropical Storm Tracking
New forecast layout! Learn more

10-Day Weather Forecast

Advertisements
Track Severe Weather on mobile